createdAt,value
2018-12-17T00:00:37.714Z,2.63
2018-12-17T00:03:13.076Z,2.65
2018-12-17T00:05:47.559Z,2.62
2018-12-17T00:11:05.615Z,2.44
2018-12-17T00:13:36.961Z,2.30
2018-12-17T00:16:13.937Z,2.25
2018-12-17T00:18:45.873Z,2.02
2018-12-17T00:21:19.869Z,2.09
2018-12-17T00:24:02.281Z,2.16
2018-12-17T00:26:33.109Z,2.30
2018-12-17T00:29:14.121Z,2.38
2018-12-17T00:31:46.453Z,2.42
2018-12-17T00:34:14.561Z,2.53
2018-12-17T00:36:42.866Z,2.56
2018-12-17T00:39:10.949Z,2.61
2018-12-17T00:41:39.066Z,2.63
2018-12-17T00:44:07.283Z,2.60
2018-12-17T00:46:35.374Z,2.62
2018-12-17T00:49:03.542Z,2.56
2018-12-17T00:51:31.872Z,2.48
2018-12-17T00:54:00.089Z,2.41
2018-12-17T00:56:28.165Z,2.52
2018-12-17T00:58:56.340Z,2.35
2018-12-17T01:01:24.524Z,2.38
2018-12-17T01:03:52.623Z,2.43
2018-12-17T01:06:20.801Z,2.51
2018-12-17T01:08:48.918Z,2.60
2018-12-17T01:11:17.097Z,2.57
2018-12-17T01:13:45.197Z,2.55
2018-12-17T01:16:13.293Z,2.53
2018-12-17T01:18:41.394Z,2.59
2018-12-17T01:21:09.550Z,2.65
2018-12-17T01:23:37.675Z,2.65
2018-12-17T01:26:05.866Z,2.61
2018-12-17T01:28:34.650Z,2.61
2018-12-17T01:31:02.858Z,2.69
2018-12-17T01:33:30.964Z,2.72
2018-12-17T01:35:59.199Z,2.73
2018-12-17T01:38:27.342Z,2.74
2018-12-17T01:40:55.429Z,2.83
2018-12-17T01:43:23.542Z,2.87
2018-12-17T01:45:51.645Z,2.89
2018-12-17T01:48:19.796Z,2.85
2018-12-17T01:50:47.979Z,2.85
2018-12-17T01:53:16.101Z,2.73
2018-12-17T01:55:44.191Z,2.67
2018-12-17T01:58:12.409Z,2.78
2018-12-17T02:00:40.596Z,2.80
2018-12-17T02:03:08.692Z,2.44
2018-12-17T02:05:36.813Z,2.46
2018-12-17T02:08:04.946Z,2.56
2018-12-17T02:10:33.160Z,2.60
2018-12-17T02:13:01.241Z,2.61
2018-12-17T02:15:29.409Z,2.72
2018-12-17T02:17:57.497Z,2.81
2018-12-17T02:20:25.685Z,2.90
2018-12-17T02:22:53.793Z,2.87
2018-12-17T02:25:21.890Z,2.90
2018-12-17T02:27:50.042Z,2.82
2018-12-17T02:30:18.220Z,3.00
2018-12-17T02:32:46.302Z,2.87
2018-12-17T02:35:14.464Z,2.83
2018-12-17T02:37:42.645Z,2.75
2018-12-17T02:40:10.763Z,2.88
2018-12-17T02:42:38.854Z,2.99
2018-12-17T02:45:07.030Z,3.03
2018-12-17T02:47:35.137Z,3.00
2018-12-17T02:50:03.445Z,2.95
2018-12-17T02:52:31.580Z,2.98
2018-12-17T02:54:59.823Z,3.01
2018-12-17T02:57:28.032Z,3.05
2018-12-17T02:59:56.214Z,3.01
2018-12-17T03:02:24.353Z,2.86
2018-12-17T03:04:52.526Z,2.70
2018-12-17T03:07:20.690Z,2.70
2018-12-17T03:09:48.810Z,2.80
2018-12-17T03:12:16.874Z,2.64
2018-12-17T03:14:44.974Z,2.62
2018-12-17T03:17:13.097Z,2.71
2018-12-17T03:19:41.204Z,2.55
2018-12-17T03:22:09.307Z,2.61
2018-12-17T03:24:37.394Z,2.70
2018-12-17T03:27:05.558Z,2.73
2018-12-17T03:29:33.930Z,2.76
2018-12-17T03:32:02.251Z,2.73
2018-12-17T03:34:30.413Z,2.39
2018-12-17T03:36:58.508Z,2.47
2018-12-17T03:39:26.586Z,2.55
2018-12-17T03:41:54.786Z,2.49
2018-12-17T03:44:22.923Z,2.49
2018-12-17T03:46:51.005Z,2.55
2018-12-17T03:49:19.201Z,2.55
2018-12-17T03:51:47.393Z,2.60
2018-12-17T03:54:15.516Z,2.68
2018-12-17T03:56:43.668Z,2.66
2018-12-17T03:59:11.747Z,2.73
2018-12-17T04:01:39.937Z,2.63
2018-12-17T04:04:08.120Z,2.58
2018-12-17T04:06:36.218Z,2.56
2018-12-17T04:09:05.934Z,2.47
2018-12-17T04:11:34.029Z,2.58
2018-12-17T04:14:02.164Z,2.64
2018-12-17T04:16:30.260Z,2.69
2018-12-17T04:18:58.377Z,2.74
2018-12-17T04:21:26.475Z,2.76
2018-12-17T04:23:54.609Z,2.75
2018-12-17T04:26:22.705Z,2.78
2018-12-17T04:28:50.868Z,2.76
2018-12-17T04:31:19.041Z,2.77
2018-12-17T04:33:47.133Z,2.62
2018-12-17T04:36:15.325Z,2.58
2018-12-17T04:38:43.422Z,2.53
2018-12-17T04:41:11.570Z,2.63
2018-12-17T04:43:39.741Z,2.79
2018-12-17T04:46:07.906Z,2.80
2018-12-17T04:48:36.246Z,2.90
2018-12-17T04:51:05.693Z,2.94
2018-12-17T04:53:33.777Z,2.70
2018-12-17T04:56:01.921Z,2.65
2018-12-17T04:58:30.117Z,2.63
2018-12-17T05:00:58.262Z,2.87
2018-12-17T05:03:26.354Z,2.82
2018-12-17T05:05:54.574Z,2.84
2018-12-17T05:08:22.751Z,2.91
2018-12-17T05:10:50.857Z,2.97
2018-12-17T05:13:18.934Z,2.99
2018-12-17T05:15:47.089Z,2.89
2018-12-17T05:18:15.274Z,2.84
2018-12-17T05:20:43.413Z,2.79
2018-12-17T05:23:11.503Z,2.99
2018-12-17T05:25:39.657Z,2.92
2018-12-17T05:28:07.857Z,3.01
2018-12-17T05:30:35.949Z,3.06
2018-12-17T05:33:04.578Z,3.14
2018-12-17T05:35:32.741Z,3.03
2018-12-17T05:38:00.841Z,2.90
2018-12-17T05:40:28.929Z,2.95
2018-12-17T05:42:57.053Z,2.93
2018-12-17T05:45:25.155Z,3.01
2018-12-17T05:47:53.629Z,3.04
2018-12-17T05:50:21.723Z,3.03
2018-12-17T05:52:49.900Z,3.03
2018-12-17T05:55:18.157Z,2.92
2018-12-17T05:57:46.278Z,2.84
2018-12-17T06:00:14.377Z,2.81
2018-12-17T06:02:42.487Z,2.73
2018-12-17T06:05:10.743Z,2.70
2018-12-17T06:07:38.827Z,2.81
2018-12-17T06:10:07.155Z,2.92
2018-12-17T06:12:35.320Z,3.00
2018-12-17T06:15:03.729Z,2.83
2018-12-17T06:17:31.818Z,2.91
2018-12-17T06:19:59.901Z,2.90
2018-12-17T06:22:27.988Z,2.92
2018-12-17T06:24:56.080Z,2.92
2018-12-17T06:27:24.303Z,2.86
2018-12-17T06:29:52.396Z,2.74
2018-12-17T06:32:20.633Z,2.65
2018-12-17T06:34:48.782Z,2.72
2018-12-17T06:37:16.861Z,2.81
2018-12-17T06:39:44.961Z,2.82
2018-12-17T06:42:13.072Z,2.91
2018-12-17T06:44:41.183Z,2.99
2018-12-17T06:47:09.361Z,3.05
2018-12-17T06:49:37.461Z,3.07
2018-12-17T06:52:05.625Z,3.08
2018-12-17T06:54:33.786Z,3.12
2018-12-17T06:57:01.944Z,3.23
2018-12-17T06:59:30.529Z,3.31
2018-12-17T07:01:58.898Z,3.24
2018-12-17T07:04:27.003Z,3.19
2018-12-17T07:06:55.102Z,3.22
2018-12-17T07:09:23.332Z,3.18
2018-12-17T07:11:51.493Z,3.23
2018-12-17T07:14:19.665Z,3.27
2018-12-17T07:16:47.865Z,3.33
2018-12-17T07:19:16.006Z,3.24
2018-12-17T07:21:44.218Z,3.11
2018-12-17T07:24:12.313Z,3.22
2018-12-17T07:26:40.412Z,3.11
2018-12-17T07:29:08.501Z,3.16
2018-12-17T07:31:36.600Z,3.13
2018-12-17T07:34:04.842Z,3.32
2018-12-17T07:36:32.954Z,3.50
2018-12-17T07:39:10.649Z,3.22
2018-12-17T07:41:39.553Z,3.15
2018-12-17T07:44:07.781Z,3.01
2018-12-17T07:46:35.957Z,3.07
2018-12-17T07:49:04.307Z,3.12
2018-12-17T07:51:32.421Z,3.05
2018-12-17T07:54:00.607Z,3.10
2018-12-17T07:56:28.757Z,3.12
2018-12-17T07:58:57.979Z,3.01
2018-12-17T08:01:26.088Z,3.09
2018-12-17T08:03:54.256Z,3.03
2018-12-17T08:06:22.382Z,2.99
2018-12-17T08:08:50.901Z,3.13
2018-12-17T08:11:19.025Z,3.05
2018-12-17T08:13:47.281Z,3.04
2018-12-17T08:16:15.424Z,3.00
2018-12-17T08:18:43.538Z,3.11
2018-12-17T08:21:11.753Z,3.10
2018-12-17T08:23:39.873Z,2.99
2018-12-17T08:26:07.958Z,3.07
2018-12-17T08:28:36.061Z,3.17
2018-12-17T08:31:04.329Z,3.12
2018-12-17T08:33:32.487Z,3.12
2018-12-17T08:36:00.612Z,3.21
2018-12-17T08:38:28.729Z,3.26
2018-12-17T08:40:56.817Z,3.41
2018-12-17T08:43:24.946Z,3.62
2018-12-17T08:45:53.026Z,3.61
2018-12-17T08:48:21.141Z,3.53
2018-12-17T08:50:49.269Z,3.46
2018-12-17T08:53:17.556Z,3.42
2018-12-17T08:55:45.722Z,3.47
2018-12-17T08:58:14.186Z,3.62
2018-12-17T09:00:42.280Z,3.70
2018-12-17T09:03:10.389Z,3.64
2018-12-17T09:05:38.573Z,3.66
2018-12-17T09:08:06.797Z,3.47
2018-12-17T09:10:34.896Z,3.58
2018-12-17T09:13:03.085Z,3.61
2018-12-17T09:15:31.168Z,3.71
2018-12-17T09:17:59.286Z,3.75
2018-12-17T09:20:27.375Z,3.79
2018-12-17T09:22:55.573Z,3.84
2018-12-17T09:25:25.363Z,3.89
2018-12-17T09:27:53.553Z,3.87
2018-12-17T09:30:21.746Z,3.90
2018-12-17T09:32:49.832Z,3.77
2018-12-17T09:35:17.922Z,3.84
2018-12-17T09:37:46.041Z,3.90
2018-12-17T09:40:14.610Z,3.85
2018-12-17T09:42:42.707Z,3.86
2018-12-17T09:45:10.993Z,3.80
2018-12-17T09:47:39.093Z,3.83
2018-12-17T09:50:07.855Z,3.87
2018-12-17T09:52:36.042Z,3.82
2018-12-17T09:55:04.389Z,3.77
2018-12-17T09:57:32.515Z,3.84
2018-12-17T10:00:00.612Z,3.83
2018-12-17T10:02:28.757Z,3.86
2018-12-17T10:04:56.840Z,3.87
2018-12-17T10:07:30.394Z,3.94
2018-12-17T10:09:59.663Z,3.96
2018-12-17T10:12:27.812Z,4.16
2018-12-17T10:14:55.918Z,4.12
2018-12-17T10:17:24.664Z,4.18
2018-12-17T10:19:52.739Z,4.29
2018-12-17T10:22:20.831Z,4.34
2018-12-17T10:24:49.063Z,4.30
2018-12-17T10:27:17.366Z,4.27
2018-12-17T10:29:45.600Z,4.39
2018-12-17T10:32:13.821Z,4.39
2018-12-17T10:34:42.060Z,4.29
2018-12-17T10:37:10.334Z,4.30
2018-12-17T10:39:38.491Z,4.35
2018-12-17T10:42:06.610Z,4.32
2018-12-17T10:44:34.927Z,4.29
2018-12-17T10:47:03.234Z,4.31
2018-12-17T10:49:31.353Z,4.29
2018-12-17T10:52:00.046Z,4.31
2018-12-17T10:54:28.238Z,4.41
2018-12-17T10:56:56.347Z,4.45
2018-12-17T10:59:24.433Z,4.43
2018-12-17T11:01:59.567Z,4.44
2018-12-17T11:04:33.208Z,4.41
2018-12-17T11:07:01.521Z,4.44
2018-12-17T11:09:29.737Z,4.53
2018-12-17T11:11:57.843Z,4.30
2018-12-17T11:14:25.967Z,4.36
2018-12-17T11:16:54.143Z,4.44
2018-12-17T11:19:22.247Z,4.33
2018-12-17T11:21:56.898Z,4.45
2018-12-17T11:24:24.994Z,4.51
2018-12-17T11:26:53.557Z,4.51
2018-12-17T11:29:21.645Z,4.53
2018-12-17T11:34:24.890Z,4.59
2018-12-17T11:36:53.080Z,4.53
2018-12-17T11:39:21.208Z,4.40
2018-12-17T11:41:49.293Z,4.50
2018-12-17T11:44:17.385Z,4.59
2018-12-17T11:46:45.540Z,4.51
2018-12-17T11:49:13.638Z,4.43
2018-12-17T11:51:41.789Z,4.48
2018-12-17T11:54:09.897Z,4.42
2018-12-17T11:56:49.412Z,4.39
2018-12-17T11:59:17.510Z,4.52
2018-12-17T12:01:45.688Z,4.48
2018-12-17T12:04:13.766Z,4.59
2018-12-17T12:06:42.118Z,4.52
2018-12-17T12:09:12.274Z,4.56
2018-12-17T12:11:40.434Z,4.49
2018-12-17T12:14:08.597Z,4.48
2018-12-17T12:16:36.735Z,4.52
2018-12-17T12:19:04.996Z,4.42
2018-12-17T12:21:41.879Z,4.33
2018-12-17T12:24:22.750Z,4.42
2018-12-17T12:26:50.852Z,4.62
2018-12-17T12:29:19.979Z,4.73
2018-12-17T12:31:48.903Z,4.88
2018-12-17T12:34:16.999Z,5.05
2018-12-17T12:36:45.713Z,5.03
2018-12-17T12:39:15.622Z,5.05
2018-12-17T12:41:43.759Z,4.98
2018-12-17T12:44:12.853Z,5.21
2018-12-17T12:46:41.086Z,5.28
2018-12-17T12:49:09.305Z,5.12
2018-12-17T12:51:37.695Z,5.05
2018-12-17T12:54:06.468Z,4.84
2018-12-17T12:56:34.665Z,4.70
2018-12-17T12:59:02.879Z,4.89
2018-12-17T13:01:30.989Z,4.96
2018-12-17T13:03:59.078Z,5.08
2018-12-17T13:06:27.197Z,4.97
2018-12-17T13:08:55.302Z,4.94
2018-12-17T13:11:23.453Z,5.02
2018-12-17T13:13:51.638Z,5.00
2018-12-17T13:16:19.767Z,4.91
2018-12-17T13:18:47.877Z,4.95
2018-12-17T13:21:15.997Z,4.94
2018-12-17T13:23:44.396Z,5.11
2018-12-17T13:26:12.487Z,4.92
2018-12-17T13:28:40.688Z,5.09
2018-12-17T13:31:14.578Z,5.22
2018-12-17T13:33:40.407Z,5.10
2018-12-17T13:36:08.728Z,5.03
2018-12-17T13:38:40.438Z,5.03
2018-12-17T13:41:09.209Z,4.99
2018-12-17T13:43:37.312Z,4.88
2018-12-17T13:46:05.467Z,4.90
2018-12-17T13:48:33.686Z,4.99
2018-12-17T13:51:07.222Z,5.08
2018-12-17T13:53:35.326Z,5.12
2018-12-17T13:56:04.185Z,5.25
2018-12-17T13:58:45.735Z,5.19
2018-12-17T14:06:18.471Z,5.10
2018-12-17T14:08:55.068Z,5.03
2018-12-17T14:11:33.645Z,4.96
2018-12-17T14:14:16.793Z,5.06
2018-12-17T14:17:04.938Z,5.10
2018-12-17T14:22:57.354Z,5.13
2018-12-17T14:25:35.868Z,5.08
2018-12-17T14:28:26.565Z,5.07
2018-12-17T15:08:32.913Z,5.39
2018-12-17T15:11:08.120Z,5.35
2018-12-17T15:27:22.460Z,5.70
2018-12-17T15:32:34.243Z,5.61
2018-12-17T15:35:02.392Z,5.68
2018-12-17T15:37:31.092Z,5.68
2018-12-17T15:39:59.477Z,5.72
2018-12-17T15:42:27.655Z,5.62
2018-12-17T15:44:55.843Z,5.52
2018-12-17T15:47:24.834Z,5.55
2018-12-17T15:49:53.042Z,5.50
2018-12-17T15:52:21.302Z,5.50
2018-12-17T15:54:49.517Z,5.58
2018-12-17T15:57:17.709Z,5.43
2018-12-17T15:59:46.233Z,5.31
2018-12-17T16:02:14.329Z,5.33
2018-12-17T16:04:42.421Z,5.38
2018-12-17T16:07:10.519Z,5.33
2018-12-17T16:09:38.612Z,5.43
2018-12-17T16:12:06.816Z,5.35
2018-12-17T16:14:36.244Z,5.31
2018-12-17T16:17:04.469Z,5.26
2018-12-17T16:19:33.717Z,5.29
2018-12-17T16:22:02.070Z,5.35
2018-12-17T16:27:27.228Z,5.40
2018-12-17T16:29:55.791Z,5.37
2018-12-17T16:32:23.894Z,5.19
2018-12-17T16:34:52.162Z,5.18
2018-12-17T16:37:20.362Z,5.05
2018-12-17T16:39:48.502Z,5.07
2018-12-17T16:42:16.697Z,4.98
2018-12-17T16:44:44.986Z,4.81
2018-12-17T16:47:13.182Z,4.79
2018-12-17T16:49:41.371Z,4.71
2018-12-17T16:52:09.728Z,4.71
2018-12-17T16:54:38.058Z,4.74
2018-12-17T16:57:06.330Z,4.75
2018-12-17T16:59:34.978Z,4.74
2018-12-17T17:02:04.675Z,4.80
2018-12-17T17:04:32.978Z,4.87
2018-12-17T17:07:01.645Z,4.79
2018-12-17T17:09:29.763Z,4.81
2018-12-17T17:11:58.368Z,4.84
2018-12-17T17:14:26.481Z,4.82
2018-12-17T17:16:54.767Z,4.82
2018-12-17T17:19:22.969Z,4.79
2018-12-17T17:21:51.126Z,4.81
2018-12-17T17:24:19.217Z,4.85
2018-12-17T17:26:47.574Z,4.89
2018-12-17T17:29:15.782Z,4.83
2018-12-17T17:31:43.952Z,4.92
2018-12-17T17:34:12.063Z,4.88
2018-12-17T17:36:40.165Z,4.89
2018-12-17T17:39:09.862Z,4.87
2018-12-17T17:41:38.130Z,4.88
2018-12-17T17:44:06.385Z,4.92
2018-12-17T17:46:34.658Z,4.93
2018-12-17T17:49:02.962Z,4.96
2018-12-17T17:51:31.203Z,4.93
2018-12-17T17:53:59.455Z,5.00
2018-12-17T17:56:27.651Z,5.11
2018-12-17T17:58:55.993Z,5.24
2018-12-17T18:01:24.217Z,5.06
2018-12-17T18:03:52.514Z,5.15
2018-12-17T18:06:20.734Z,5.16
2018-12-17T18:08:48.943Z,5.23
2018-12-17T18:11:17.157Z,5.23
2018-12-17T18:13:45.365Z,5.18
2018-12-17T18:16:13.607Z,5.16
2018-12-17T18:18:41.948Z,5.19
2018-12-17T18:21:10.179Z,5.16
2018-12-17T18:23:38.377Z,5.15
2018-12-17T18:26:06.643Z,5.21
2018-12-17T18:28:34.944Z,5.26
2018-12-17T18:31:03.318Z,5.21
2018-12-17T18:33:31.518Z,5.15
2018-12-17T18:35:59.827Z,5.11
2018-12-17T18:38:28.026Z,5.21
2018-12-17T18:40:56.300Z,5.16
2018-12-17T18:43:24.496Z,5.17
2018-12-17T18:45:52.783Z,5.22
2018-12-17T18:48:21.175Z,4.95
2018-12-17T18:50:49.409Z,5.00
2018-12-17T18:53:17.610Z,5.13
2018-12-17T18:55:45.869Z,5.20
2018-12-17T18:58:14.161Z,5.17
2018-12-17T19:00:42.965Z,5.11
2018-12-17T19:03:11.171Z,5.24
2018-12-17T19:05:39.453Z,5.34
2018-12-17T19:08:07.666Z,5.31
2018-12-17T19:10:41.294Z,5.28
2018-12-17T19:13:09.490Z,5.25
2018-12-17T19:15:37.845Z,5.41
2018-12-17T19:18:06.068Z,5.36
2018-12-17T19:20:34.258Z,5.41
2018-12-17T19:23:02.473Z,5.40
2018-12-17T19:25:30.798Z,5.28
2018-12-17T19:27:59.005Z,5.21
2018-12-17T19:30:27.195Z,5.14
2018-12-17T19:32:55.354Z,5.07
2018-12-17T19:35:23.558Z,5.07
2018-12-17T19:37:51.758Z,5.02
2018-12-17T19:40:19.967Z,5.07
2018-12-17T19:42:48.194Z,5.12
2018-12-17T19:45:16.497Z,5.05
2018-12-17T19:47:44.714Z,5.10
2018-12-17T19:50:12.938Z,4.94
2018-12-17T19:52:42.071Z,5.03
2018-12-17T19:55:10.315Z,5.01
2018-12-17T19:57:38.965Z,5.08
2018-12-17T20:00:08.787Z,5.01
2018-12-17T20:03:11.425Z,4.96
2018-12-17T20:13:19.487Z,4.97
2018-12-17T20:16:04.612Z,5.09
2018-12-17T20:18:57.048Z,5.00
2018-12-17T20:21:38.345Z,4.88
2018-12-17T20:24:23.125Z,4.89
2018-12-17T20:26:57.806Z,4.93
2018-12-17T20:33:18.132Z,4.84
2018-12-17T20:35:56.702Z,4.95
2018-12-17T20:59:03.337Z,5.12
2018-12-17T21:01:33.674Z,5.32
2018-12-17T21:04:42.122Z,5.30
2018-12-17T21:07:34.268Z,5.41
2018-12-17T21:10:13.070Z,5.46
2018-12-17T21:12:46.708Z,5.39
2018-12-17T21:15:26.671Z,5.42
2018-12-17T21:18:08.202Z,5.31
2018-12-17T21:21:19.146Z,5.28
2018-12-17T21:24:09.610Z,5.36
2018-12-17T21:26:50.446Z,5.28
2018-12-17T21:29:28.260Z,5.25
2018-12-17T21:32:00.216Z,5.13
2018-12-17T21:34:52.597Z,5.20
2018-12-17T21:37:29.832Z,5.14
2018-12-17T21:40:04.108Z,5.11
2018-12-17T21:42:40.359Z,5.03
2018-12-17T21:45:14.229Z,5.10
2018-12-17T21:47:56.570Z,5.05
2018-12-17T21:50:32.762Z,4.98
2018-12-17T21:53:07.329Z,5.10
2018-12-17T21:55:47.872Z,5.07
2018-12-17T21:58:35.957Z,4.93
2018-12-17T22:33:29.514Z,4.90
2018-12-17T22:36:12.319Z,4.98
2018-12-17T22:38:55.243Z,5.07
2018-12-17T22:41:45.009Z,5.02
2018-12-17T22:44:23.058Z,4.92
2018-12-17T22:46:58.205Z,5.07
2018-12-17T22:49:43.906Z,5.18
2018-12-17T22:52:27.123Z,5.06
2018-12-17T23:20:43.260Z,4.64
2018-12-17T23:23:11.831Z,4.76
2018-12-17T23:25:45.434Z,4.85
2018-12-17T23:42:09.186Z,4.98
2018-12-17T23:44:37.841Z,5.01
2018-12-17T23:47:09.167Z,4.98
2018-12-17T23:52:30.895Z,4.86
2018-12-17T23:55:03.251Z,5.01
2018-12-17T23:57:38.812Z,4.89
